sensor_id;sensor_type;location;lat;lon;timestamp;pressure;altitude;pressure_sealevel;temperature;humidity
21300;BME280;10809;49.476;11.016;2024-02-21T00:01:15;99191.41;;;7.42;58.72
21300;BME280;10809;49.476;11.016;2024-02-21T00:03:46;99194.94;;;7.41;58.64
21300;BME280;10809;49.476;11.016;2024-02-21T00:06:17;99189.72;;;7.40;58.91
21300;BME280;10809;49.476;11.016;2024-02-21T00:08:47;99186.22;;;7.39;58.94
21300;BME280;10809;49.476;11.016;2024-02-21T00:11:18;99183.56;;;7.39;58.63
21300;BME280;10809;49.476;11.016;2024-02-21T00:13:48;99182.75;;;7.39;58.86
21300;BME280;10809;49.476;11.016;2024-02-21T00:16:18;99183.63;;;7.38;58.82
21300;BME280;10809;49.476;11.016;2024-02-21T00:18:49;99182.78;;;7.37;58.74
21300;BME280;10809;49.476;11.016;2024-02-21T00:21:19;99170.50;;;7.36;58.72
21300;BME280;10809;49.476;11.016;2024-02-21T00:23:50;99179.31;;;7.35;58.74
21300;BME280;10809;49.476;11.016;2024-02-21T00:26:20;99170.53;;;7.35;58.86
21300;BME280;10809;49.476;11.016;2024-02-21T00:28:51;99166.19;;;7.34;58.78
21300;BME280;10809;49.476;11.016;2024-02-21T00:31:21;99161.84;;;7.33;58.88
21300;BME280;10809;49.476;11.016;2024-02-21T00:33:52;99160.06;;;7.33;58.82
21300;BME280;10809;49.476;11.016;2024-02-21T00:36:22;99160.97;;;7.32;58.89
21300;BME280;10809;49.476;11.016;2024-02-21T00:38:53;99159.25;;;7.31;59.04
21300;BME280;10809;49.476;11.016;2024-02-21T00:41:23;99149.59;;;7.30;58.86
21300;BME280;10809;49.476;11.016;2024-02-21T00:43:54;99154.03;;;7.30;58.82
21300;BME280;10809;49.476;11.016;2024-02-21T00:46:24;99146.13;;;7.30;59.08
21300;BME280;10809;49.476;11.016;2024-02-21T00:48:54;99154.03;;;7.30;58.97
21300;BME280;10809;49.476;11.016;2024-02-21T00:51:25;99147.88;;;7.29;58.89
21300;BME280;10809;49.476;11.016;2024-02-21T00:53:55;99141.75;;;7.29;59.14
21300;BME280;10809;49.476;11.016;2024-02-21T00:56:29;99140.91;;;7.28;59.20
21300;BME280;10809;49.476;11.016;2024-02-21T00:59:00;99133.84;;;7.29;59.09
21300;BME280;10809;49.476;11.016;2024-02-21T01:01:34;99132.09;;;7.29;59.00
21300;BME280;10809;49.476;11.016;2024-02-21T01:04:04;99126.81;;;7.29;59.23
21300;BME280;10809;49.476;11.016;2024-02-21T01:06:35;99118.09;;;7.27;59.10
21300;BME280;10809;49.476;11.016;2024-02-21T01:09:07;99116.31;;;7.28;59.28
21300;BME280;10809;49.476;11.016;2024-02-21T01:11:37;99119.84;;;7.28;59.13
21300;BME280;10809;49.476;11.016;2024-02-21T01:14:07;99116.38;;;7.26;59.09
21300;BME280;10809;49.476;11.016;2024-02-21T01:16:38;99113.72;;;7.26;59.25
21300;BME280;10809;49.476;11.016;2024-02-21T01:19:08;99110.22;;;7.26;59.07
21300;BME280;10809;49.476;11.016;2024-02-21T01:21:42;99100.59;;;7.25;59.16
21300;BME280;10809;49.476;11.016;2024-02-21T01:24:12;99101.50;;;7.24;59.16
21300;BME280;10809;49.476;11.016;2024-02-21T01:26:44;99101.50;;;7.24;59.07
21300;BME280;10809;49.476;11.016;2024-02-21T01:29:15;99094.50;;;7.23;59.16
21300;BME280;10809;49.476;11.016;2024-02-21T01:31:45;99098.91;;;7.22;59.15
21300;BME280;10809;49.476;11.016;2024-02-21T01:34:17;99098.91;;;7.22;59.28
21300;BME280;10809;49.476;11.016;2024-02-21T01:36:47;99094.56;;;7.21;59.38
21300;BME280;10809;49.476;11.016;2024-02-21T01:39:18;99098.94;;;7.21;59.29
21300;BME280;10809;49.476;11.016;2024-02-21T01:41:48;99086.69;;;7.20;59.17
21300;BME280;10809;49.476;11.016;2024-02-21T01:44:19;99091.97;;;7.20;59.29
21300;BME280;10809;49.476;11.016;2024-02-21T01:46:50;99080.59;;;7.18;59.33
21300;BME280;10809;49.476;11.016;2024-02-21T01:49:21;99087.72;;;7.16;59.38
21300;BME280;10809;49.476;11.016;2024-02-21T01:51:52;99078.94;;;7.15;59.19
21300;BME280;10809;49.476;11.016;2024-02-21T01:54:25;99072.81;;;7.15;59.36
21300;BME280;10809;49.476;11.016;2024-02-21T01:56:58;99075.47;;;7.13;59.28
21300;BME280;10809;49.476;11.016;2024-02-21T01:59:29;99072.00;;;7.13;59.33
21300;BME280;10809;49.476;11.016;2024-02-21T02:02:00;99068.50;;;7.12;59.38
21300;BME280;10809;49.476;11.016;2024-02-21T02:04:30;99071.19;;;7.11;59.32
21300;BME280;10809;49.476;11.016;2024-02-21T02:07:02;99071.22;;;7.09;59.43
21300;BME280;10809;49.476;11.016;2024-02-21T02:09:33;99075.63;;;7.09;59.56
21300;BME280;10809;49.476;11.016;2024-02-21T02:12:04;99063.38;;;7.08;59.65
21300;BME280;10809;49.476;11.016;2024-02-21T02:14:35;99068.63;;;7.08;59.53
21300;BME280;10809;49.476;11.016;2024-02-21T02:17:06;99068.63;;;7.08;59.55
21300;BME280;10809;49.476;11.016;2024-02-21T02:19:36;99065.13;;;7.07;59.52
21300;BME280;10809;49.476;11.016;2024-02-21T02:22:15;99056.38;;;7.07;59.47
21300;BME280;10809;49.476;11.016;2024-02-21T02:24:49;99055.47;;;7.06;59.66
21300;BME280;10809;49.476;11.016;2024-02-21T02:27:20;99059.03;;;7.07;59.51
21300;BME280;10809;49.476;11.016;2024-02-21T02:29:53;99051.97;;;7.06;59.57
21300;BME280;10809;49.476;11.016;2024-02-21T02:32:23;99044.06;;;7.06;59.57
21300;BME280;10809;49.476;11.016;2024-02-21T02:34:53;99043.25;;;7.05;59.55
21300;BME280;10809;49.476;11.016;2024-02-21T02:37:24;99039.72;;;7.05;59.46
21300;BME280;10809;49.476;11.016;2024-02-21T02:40:01;99032.69;;;7.05;59.57
21300;BME280;10809;49.476;11.016;2024-02-21T02:42:32;99023.94;;;7.05;59.67
21300;BME280;10809;49.476;11.016;2024-02-21T02:45:02;99022.16;;;7.05;59.57
21300;BME280;10809;49.476;11.016;2024-02-21T02:47:33;99016.06;;;7.03;59.56
21300;BME280;10809;49.476;11.016;2024-02-21T02:50:05;99010.81;;;7.03;59.57
21300;BME280;10809;49.476;11.016;2024-02-21T02:52:36;99019.63;;;7.02;59.62
21300;BME280;10809;49.476;11.016;2024-02-21T02:55:07;99011.72;;;7.02;59.86
21300;BME280;10809;49.476;11.016;2024-02-21T02:57:37;99012.63;;;7.01;59.53
21300;BME280;10809;49.476;11.016;2024-02-21T03:00:12;99005.63;;;7.00;59.81
21300;BME280;10809;49.476;11.016;2024-02-21T03:02:45;99009.16;;;7.01;59.75
21300;BME280;10809;49.476;11.016;2024-02-21T03:05:18;98998.66;;;6.99;59.90
21300;BME280;10809;49.476;11.016;2024-02-21T03:07:49;99001.34;;;6.98;59.66
21300;BME280;10809;49.476;11.016;2024-02-21T03:10:20;99000.47;;;6.97;59.97
21300;BME280;10809;49.476;11.016;2024-02-21T03:12:50;99003.97;;;6.98;59.77
21300;BME280;10809;49.476;11.016;2024-02-21T03:15:23;99010.06;;;6.98;59.70
21300;BME280;10809;49.476;11.016;2024-02-21T03:17:53;99010.06;;;6.98;59.48
21300;BME280;10809;49.476;11.016;2024-02-21T03:20:24;99000.41;;;6.99;59.96
21300;BME280;10809;49.476;11.016;2024-02-21T03:22:54;98996.91;;;6.98;60.03
21300;BME280;10809;49.476;11.016;2024-02-21T03:25:24;98999.53;;;6.98;59.99
21300;BME280;10809;49.476;11.016;2024-02-21T03:27:55;98988.19;;;6.98;59.93
21300;BME280;10809;49.476;11.016;2024-02-21T03:30:25;98983.75;;;6.98;60.00
21300;BME280;10809;49.476;11.016;2024-02-21T03:32:56;98996.06;;;6.98;59.69
21300;BME280;10809;49.476;11.016;2024-02-21T03:35:26;98988.13;;;6.99;60.03
21300;BME280;10809;49.476;11.016;2024-02-21T03:37:57;98994.28;;;6.98;59.95
21300;BME280;10809;49.476;11.016;2024-02-21T03:40:27;98993.41;;;6.99;59.82
21300;BME280;10809;49.476;11.016;2024-02-21T03:43:01;98994.28;;;6.98;59.97
21300;BME280;10809;49.476;11.016;2024-02-21T03:45:31;98992.56;;;6.97;59.97
21300;BME280;10809;49.476;11.016;2024-02-21T03:48:02;98988.22;;;6.96;60.01
21300;BME280;10809;49.476;11.016;2024-02-21T03:50:32;98985.59;;;6.96;59.97
21300;BME280;10809;49.476;11.016;2024-02-21T03:53:03;98988.22;;;6.96;60.07
21300;BME280;10809;49.476;11.016;2024-02-21T03:55:33;98975.94;;;6.95;60.10
21300;BME280;10809;49.476;11.016;2024-02-21T03:58:04;98973.31;;;6.95;59.87
21300;BME280;10809;49.476;11.016;2024-02-21T04:00:34;98969.84;;;6.95;60.10
21300;BME280;10809;49.476;11.016;2024-02-21T04:03:05;98961.06;;;6.94;60.18
21300;BME280;10809;49.476;11.016;2024-02-21T04:05:42;98954.09;;;6.93;60.34
21300;BME280;10809;49.476;11.016;2024-02-21T04:08:13;98947.91;;;6.94;60.08
21300;BME280;10809;49.476;11.016;2024-02-21T04:10:44;98951.47;;;6.93;60.05
21300;BME280;10809;49.476;11.016;2024-02-21T04:13:14;98960.19;;;6.94;60.05
21300;BME280;10809;49.476;11.016;2024-02-21T04:15:45;98954.09;;;6.93;60.01
21300;BME280;10809;49.476;11.016;2024-02-21T04:18:15;98953.22;;;6.93;60.27
21300;BME280;10809;49.476;11.016;2024-02-21T04:20:46;98953.22;;;6.93;60.04
21300;BME280;10809;49.476;11.016;2024-02-21T04:23:17;98970.72;;;6.94;60.29
21300;BME280;10809;49.476;11.016;2024-02-21T04:25:47;98966.34;;;6.94;60.39
21300;BME280;10809;49.476;11.016;2024-02-21T04:28:18;98966.34;;;6.94;60.39
21300;BME280;10809;49.476;11.016;2024-02-21T04:30:54;98971.59;;;6.94;60.45
21300;BME280;10809;49.476;11.016;2024-02-21T04:33:25;98970.69;;;6.95;60.34
21300;BME280;10809;49.476;11.016;2024-02-21T04:35:55;98961.06;;;6.94;60.58
21300;BME280;10809;49.476;11.016;2024-02-21T04:38:29;98961.94;;;6.95;60.41
21300;BME280;10809;49.476;11.016;2024-02-21T04:40:59;98950.53;;;6.94;60.50
21300;BME280;10809;49.476;11.016;2024-02-21T04:43:30;98950.59;;;6.93;60.40
21300;BME280;10809;49.476;11.016;2024-02-21T04:46:00;98942.75;;;6.91;60.48
21300;BME280;10809;49.476;11.016;2024-02-21T04:48:31;98949.75;;;6.91;60.64
21300;BME280;10809;49.476;11.016;2024-02-21T04:51:01;98939.28;;;6.89;60.42
21300;BME280;10809;49.476;11.016;2024-02-21T04:53:32;98945.47;;;6.88;60.70
21300;BME280;10809;49.476;11.016;2024-02-21T04:56:10;98945.50;;;6.87;60.48
21300;BME280;10809;49.476;11.016;2024-02-21T04:58:40;98929.78;;;6.85;60.67
21300;BME280;10809;49.476;11.016;2024-02-21T05:01:10;98928.91;;;6.85;60.65
21300;BME280;10809;49.476;11.016;2024-02-21T05:03:41;98921.91;;;6.84;60.81
21300;BME280;10809;49.476;11.016;2024-02-21T05:06:11;98921.09;;;6.82;60.69
21300;BME280;10809;49.476;11.016;2024-02-21T05:08:42;98917.63;;;6.81;60.69
21300;BME280;10809;49.476;11.016;2024-02-21T05:11:12;98907.09;;;6.81;60.92
21300;BME280;10809;49.476;11.016;2024-02-21T05:13:46;98899.25;;;6.80;60.78
21300;BME280;10809;49.476;11.016;2024-02-21T05:16:16;98895.78;;;6.78;61.03
21300;BME280;10809;49.476;11.016;2024-02-21T05:18:47;98901.94;;;6.78;60.93
21300;BME280;10809;49.476;11.016;2024-02-21T05:21:17;98903.72;;;6.76;60.89
21300;BME280;10809;49.476;11.016;2024-02-21T05:23:47;98901.16;;;6.75;60.90
21300;BME280;10809;49.476;11.016;2024-02-21T05:26:22;98895.94;;;6.73;60.69
21300;BME280;10809;49.476;11.016;2024-02-21T05:28:52;98903.88;;;6.72;60.77
21300;BME280;10809;49.476;11.016;2024-02-21T05:31:23;98894.28;;;6.69;60.69
21300;BME280;10809;49.476;11.016;2024-02-21T05:33:54;98897.84;;;6.68;60.96
21300;BME280;10809;49.476;11.016;2024-02-21T05:36:24;98897.00;;;6.66;60.36
21300;BME280;10809;49.476;11.016;2024-02-21T05:38:54;98900.56;;;6.65;61.02
21300;BME280;10809;49.476;11.016;2024-02-21T05:41:25;98897.09;;;6.63;60.88
21300;BME280;10809;49.476;11.016;2024-02-21T05:43:55;98896.28;;;6.63;60.85
21300;BME280;10809;49.476;11.016;2024-02-21T05:46:26;98898.06;;;6.61;60.99
21300;BME280;10809;49.476;11.016;2024-02-21T05:48:56;98897.19;;;6.60;61.07
21300;BME280;10809;49.476;11.016;2024-02-21T05:51:27;98895.50;;;6.59;61.02
21300;BME280;10809;49.476;11.016;2024-02-21T05:53:57;98887.63;;;6.58;61.09
21300;BME280;10809;49.476;11.016;2024-02-21T05:56:27;98885.94;;;6.57;61.24
21300;BME280;10809;49.476;11.016;2024-02-21T05:58:58;98886.81;;;6.56;61.29
21300;BME280;10809;49.476;11.016;2024-02-21T06:01:29;98891.25;;;6.55;61.12
21300;BME280;10809;49.476;11.016;2024-02-21T06:03:59;98889.50;;;6.54;61.11
21300;BME280;10809;49.476;11.016;2024-02-21T06:06:30;98892.16;;;6.53;61.18
21300;BME280;10809;49.476;11.016;2024-02-21T06:09:00;98879.06;;;6.51;61.12
21300;BME280;10809;49.476;11.016;2024-02-21T06:11:32;98889.63;;;6.50;61.18
21300;BME280;10809;49.476;11.016;2024-02-21T06:14:06;98887.97;;;6.47;61.00
21300;BME280;10809;49.476;11.016;2024-02-21T06:16:36;98887.97;;;6.47;61.22
21300;BME280;10809;49.476;11.016;2024-02-21T06:19:07;98881.03;;;6.45;61.22
21300;BME280;10809;49.476;11.016;2024-02-21T06:21:37;98880.22;;;6.43;61.01
21300;BME280;10809;49.476;11.016;2024-02-21T06:24:08;98870.66;;;6.40;61.04
21300;BME280;10809;49.476;11.016;2024-02-21T06:26:40;98877.72;;;6.38;61.05
21300;BME280;10809;49.476;11.016;2024-02-21T06:29:11;98888.28;;;6.37;61.07
21300;BME280;10809;49.476;11.016;2024-02-21T06:31:41;98890.09;;;6.35;61.25
21300;BME280;10809;49.476;11.016;2024-02-21T06:34:12;98898.91;;;6.34;61.27
21300;BME280;10809;49.476;11.016;2024-02-21T06:36:42;98892.84;;;6.30;61.20
21300;BME280;10809;49.476;11.016;2024-02-21T06:39:15;98900.78;;;6.29;61.46
21300;BME280;10809;49.476;11.016;2024-02-21T06:41:45;98909.59;;;6.28;61.39
21300;BME280;10809;49.476;11.016;2024-02-21T06:44:19;98915.72;;;6.28;61.55
21300;BME280;10809;49.476;11.016;2024-02-21T06:46:49;98913.97;;;6.27;61.62
21300;BME280;10809;49.476;11.016;2024-02-21T06:49:20;98909.59;;;6.28;61.74
21300;BME280;10809;49.476;11.016;2024-02-21T06:51:50;98908.69;;;6.29;61.88
21300;BME280;10809;49.476;11.016;2024-02-21T06:54:21;98898.16;;;6.29;61.79
21300;BME280;10809;49.476;11.016;2024-02-21T06:56:51;98886.75;;;6.30;61.49
21300;BME280;10809;49.476;11.016;2024-02-21T06:59:21;98898.06;;;6.32;61.81
21300;BME280;10809;49.476;11.016;2024-02-21T07:01:53;98887.56;;;6.32;61.90
21300;BME280;10809;49.476;11.016;2024-02-21T07:04:24;98889.25;;;6.34;61.78
21300;BME280;10809;49.476;11.016;2024-02-21T07:06:55;98881.31;;;6.36;61.85
21300;BME280;10809;49.476;11.016;2024-02-21T07:09:25;98882.16;;;6.36;61.83
21300;BME280;10809;49.476;11.016;2024-02-21T07:11:56;98882.94;;;6.40;61.87
21300;BME280;10809;49.476;11.016;2024-02-21T07:14:30;98885.53;;;6.41;62.04
21300;BME280;10809;49.476;11.016;2024-02-21T07:17:02;98888.06;;;6.44;62.14
21300;BME280;10809;49.476;11.016;2024-02-21T07:19:32;98888.00;;;6.46;61.93
21300;BME280;10809;49.476;11.016;2024-02-21T07:22:03;98886.22;;;6.48;62.03
21300;BME280;10809;49.476;11.016;2024-02-21T07:24:33;98887.88;;;6.50;61.96
21300;BME280;10809;49.476;11.016;2024-02-21T07:27:04;98881.69;;;6.51;61.85
21300;BME280;10809;49.476;11.016;2024-02-21T07:29:34;98885.16;;;6.53;62.01
21300;BME280;10809;49.476;11.016;2024-02-21T07:32:05;98876.28;;;6.56;62.02
21300;BME280;10809;49.476;11.016;2024-02-21T07:34:35;98878.84;;;6.59;62.09
21300;BME280;10809;49.476;11.016;2024-02-21T07:37:06;98874.34;;;6.62;62.47
21300;BME280;10809;49.476;11.016;2024-02-21T07:39:40;98872.31;;;6.72;63.28
21300;BME280;10809;49.476;11.016;2024-02-21T07:42:11;98871.72;;;6.90;64.32
21300;BME280;10809;49.476;11.016;2024-02-21T07:44:41;98868.31;;;7.14;65.01
21300;BME280;10809;49.476;11.016;2024-02-21T07:47:12;98854.06;;;7.45;65.32
21300;BME280;10809;49.476;11.016;2024-02-21T07:49:45;98857.31;;;7.78;65.11
21300;BME280;10809;49.476;11.016;2024-02-21T07:52:16;98850.88;;;8.10;65.09
21300;BME280;10809;49.476;11.016;2024-02-21T07:54:46;98845.25;;;8.42;65.47
21300;BME280;10809;49.476;11.016;2024-02-21T07:57:17;98849.34;;;8.72;64.91
21300;BME280;10809;49.476;11.016;2024-02-21T07:59:47;98857.03;;;8.99;64.53
21300;BME280;10809;49.476;11.016;2024-02-21T08:02:18;98855.28;;;9.20;63.96
21300;BME280;10809;49.476;11.016;2024-02-21T08:04:48;98844.88;;;9.37;63.33
21300;BME280;10809;49.476;11.016;2024-02-21T08:07:19;98855.81;;;9.49;62.62
21300;BME280;10809;49.476;11.016;2024-02-21T08:09:49;98834.19;;;9.60;62.20
21300;BME280;10809;49.476;11.016;2024-02-21T08:12:20;98833.94;;;9.66;61.08
21300;BME280;10809;49.476;11.016;2024-02-21T08:14:50;98830.41;;;9.66;61.21
21300;BME280;10809;49.476;11.016;2024-02-21T08:17:20;98826.19;;;9.62;60.35
21300;BME280;10809;49.476;11.016;2024-02-21T08:19:51;98817.66;;;9.55;60.07
21300;BME280;10809;49.476;11.016;2024-02-21T08:22:22;98815.28;;;9.49;60.13
21300;BME280;10809;49.476;11.016;2024-02-21T08:24:52;98808.41;;;9.45;60.39
21300;BME280;10809;49.476;11.016;2024-02-21T08:27:22;98816.47;;;9.42;60.46
21300;BME280;10809;49.476;11.016;2024-02-21T08:29:53;98819.19;;;9.40;60.59
21300;BME280;10809;49.476;11.016;2024-02-21T08:32:23;98817.28;;;9.44;61.25
21300;BME280;10809;49.476;11.016;2024-02-21T08:34:54;98818.72;;;9.51;61.68
21300;BME280;10809;49.476;11.016;2024-02-21T08:37:24;98818.47;;;9.57;61.01
21300;BME280;10809;49.476;11.016;2024-02-21T08:39:54;98813.91;;;9.61;60.70
21300;BME280;10809;49.476;11.016;2024-02-21T08:42:28;98809.47;;;9.61;60.29
21300;BME280;10809;49.476;11.016;2024-02-21T08:44:58;98802.59;;;9.57;60.05
21300;BME280;10809;49.476;11.016;2024-02-21T08:47:29;98799.22;;;9.53;59.90
21300;BME280;10809;49.476;11.016;2024-02-21T08:49:59;98797.53;;;9.52;60.37
21300;BME280;10809;49.476;11.016;2024-02-21T08:52:30;98786.81;;;9.55;60.68
21300;BME280;10809;49.476;11.016;2024-02-21T08:55:00;98790.06;;;9.62;60.98
21300;BME280;10809;49.476;11.016;2024-02-21T08:57:31;98787.00;;;9.71;61.33
21300;BME280;10809;49.476;11.016;2024-02-21T09:00:07;98797.16;;;9.80;61.34
21300;BME280;10809;49.476;11.016;2024-02-21T09:02:40;98793.31;;;9.87;61.08
21300;BME280;10809;49.476;11.016;2024-02-21T09:05:11;98796.63;;;9.92;60.78
21300;BME280;10809;49.476;11.016;2024-02-21T09:07:41;98803.41;;;9.98;60.41
21300;BME280;10809;49.476;11.016;2024-02-21T09:10:12;98795.28;;;10.02;60.95
21300;BME280;10809;49.476;11.016;2024-02-21T09:12:42;98797.72;;;10.07;60.75
21300;BME280;10809;49.476;11.016;2024-02-21T09:15:13;98792.22;;;10.11;60.72
21300;BME280;10809;49.476;11.016;2024-02-21T09:17:44;98787.66;;;10.15;60.32
21300;BME280;10809;49.476;11.016;2024-02-21T09:20:14;98784.78;;;10.19;60.20
21300;BME280;10809;49.476;11.016;2024-02-21T09:22:46;98789.16;;;10.20;59.89
21300;BME280;10809;49.476;11.016;2024-02-21T09:25:17;98782.81;;;10.24;59.96
21300;BME280;10809;49.476;11.016;2024-02-21T09:27:47;98780.78;;;10.29;60.11
21300;BME280;10809;49.476;11.016;2024-02-21T09:30:17;98779.66;;;10.35;59.91
21300;BME280;10809;49.476;11.016;2024-02-21T09:32:49;98783.84;;;10.39;59.51
21300;BME280;10809;49.476;11.016;2024-02-21T09:35:19;98776.63;;;10.42;59.15
21300;BME280;10809;49.476;11.016;2024-02-21T09:37:53;98776.50;;;10.45;59.02
21300;BME280;10809;49.476;11.016;2024-02-21T09:40:24;98780.91;;;10.45;58.68
21300;BME280;10809;49.476;11.016;2024-02-21T09:43:02;98782.81;;;10.43;58.66
21300;BME280;10809;49.476;11.016;2024-02-21T09:45:46;98787.38;;;10.39;58.41
21300;BME280;10809;49.476;11.016;2024-02-21T09:50:49;98774.56;;;10.30;58.12
21300;BME280;10809;49.476;11.016;2024-02-21T09:53:20;98770.34;;;10.26;58.28
21300;BME280;10809;49.476;11.016;2024-02-21T09:55:51;98765.19;;;10.23;58.44
21300;BME280;10809;49.476;11.016;2024-02-21T09:58:23;98767.84;;;10.23;58.10
21300;BME280;10809;49.476;11.016;2024-02-21T10:00:54;98754.69;;;10.22;58.16
21300;BME280;10809;49.476;11.016;2024-02-21T10:03:24;98756.47;;;10.21;58.45
21300;BME280;10809;49.476;11.016;2024-02-21T10:05:55;98751.19;;;10.21;58.61
21300;BME280;10809;49.476;11.016;2024-02-21T10:08:25;98746.66;;;10.23;58.38
21300;BME280;10809;49.476;11.016;2024-02-21T10:10:56;98733.28;;;10.26;58.58
21300;BME280;10809;49.476;11.016;2024-02-21T10:13:32;98740.25;;;10.29;58.33
21300;BME280;10809;49.476;11.016;2024-02-21T10:16:07;98728.63;;;10.31;58.19
21300;BME280;10809;49.476;11.016;2024-02-21T10:18:41;98724.13;;;10.33;58.08
21300;BME280;10809;49.476;11.016;2024-02-21T10:21:11;98724.06;;;10.35;58.25
21300;BME280;10809;49.476;11.016;2024-02-21T10:23:49;98721.28;;;10.38;58.43
21300;BME280;10809;49.476;11.016;2024-02-21T10:26:19;98714.13;;;10.40;57.90
21300;BME280;10809;49.476;11.016;2024-02-21T10:28:50;98720.19;;;10.42;57.85
21300;BME280;10809;49.476;11.016;2024-02-21T10:31:23;98712.09;;;10.45;57.95
21300;BME280;10809;49.476;11.016;2024-02-21T10:33:59;98702.28;;;10.47;58.00
21300;BME280;10809;49.476;11.016;2024-02-21T10:36:30;98704.88;;;10.48;57.42
21300;BME280;10809;49.476;11.016;2024-02-21T10:39:00;98706.56;;;10.49;57.56
21300;BME280;10809;49.476;11.016;2024-02-21T10:41:31;98704.78;;;10.50;57.62
21300;BME280;10809;49.476;11.016;2024-02-21T10:44:05;98683.63;;;10.50;57.41
21300;BME280;10809;49.476;11.016;2024-02-21T10:46:35;98681.84;;;10.50;57.51
21300;BME280;10809;49.476;11.016;2024-02-21T10:49:10;98680.88;;;10.51;56.86
21300;BME280;10809;49.476;11.016;2024-02-21T10:51:45;98687.06;;;10.52;56.96
21300;BME280;10809;49.476;11.016;2024-02-21T10:57:05;98679.09;;;10.52;57.00
21300;BME280;10809;49.476;11.016;2024-02-21T10:59:37;98673.81;;;10.52;56.90
21300;BME280;10809;49.476;11.016;2024-02-21T11:02:07;98673.75;;;10.53;57.08
21300;BME280;10809;49.476;11.016;2024-02-21T11:04:39;98666.63;;;10.54;57.05
21300;BME280;10809;49.476;11.016;2024-02-21T11:07:10;98663.97;;;10.54;56.83
21300;BME280;10809;49.476;11.016;2024-02-21T11:09:50;98662.19;;;10.54;56.60
21300;BME280;10809;49.476;11.016;2024-02-21T11:12:23;98643.66;;;10.54;56.57
21300;BME280;10809;49.476;11.016;2024-02-21T11:15:03;98648.88;;;10.56;56.72
21300;BME280;10809;49.476;11.016;2024-02-21T11:17:35;98644.38;;;10.58;57.04
21300;BME280;10809;49.476;11.016;2024-02-21T11:20:13;98626.53;;;10.61;57.19
21300;BME280;10809;49.476;11.016;2024-02-21T11:22:43;98620.16;;;10.65;57.31
21300;BME280;10809;49.476;11.016;2024-02-21T11:25:21;98611.97;;;10.70;57.00
21300;BME280;10809;49.476;11.016;2024-02-21T11:28:07;98598.50;;;10.74;57.29
21300;BME280;10809;49.476;11.016;2024-02-21T11:30:39;98593.81;;;10.79;57.36
21300;BME280;10809;49.476;11.016;2024-02-21T11:33:12;98597.88;;;10.86;57.06
21300;BME280;10809;49.476;11.016;2024-02-21T11:35:43;98594.97;;;10.91;57.15
21300;BME280;10809;49.476;11.016;2024-02-21T11:38:13;98591.91;;;10.98;57.53
21300;BME280;10809;49.476;11.016;2024-02-21T11:40:47;98582.69;;;11.05;57.13
21300;BME280;10809;49.476;11.016;2024-02-21T11:43:21;98570.94;;;11.11;57.21
21300;BME280;10809;49.476;11.016;2024-02-21T11:45:59;98575.81;;;11.18;57.11
21300;BME280;10809;49.476;11.016;2024-02-21T11:48:31;98565.84;;;11.23;56.73
21300;BME280;10809;49.476;11.016;2024-02-21T11:51:02;98563.81;;;11.28;56.69
21300;BME280;10809;49.476;11.016;2024-02-21T11:53:33;98560.81;;;11.35;56.63
21300;BME280;10809;49.476;11.016;2024-02-21T11:56:04;98556.13;;;11.40;56.54
21300;BME280;10809;49.476;11.016;2024-02-21T11:58:35;98551.53;;;11.43;56.68
21300;BME280;10809;49.476;11.016;2024-02-21T12:01:05;98548.63;;;11.48;56.34
21300;BME280;10809;49.476;11.016;2024-02-21T12:03:37;98540.50;;;11.51;56.53
21300;BME280;10809;49.476;11.016;2024-02-21T12:06:08;98532.38;;;11.54;56.33
21300;BME280;10809;49.476;11.016;2024-02-21T12:08:42;98525.94;;;11.58;56.05
21300;BME280;10809;49.476;11.016;2024-02-21T12:11:22;98509.84;;;11.61;56.23
21300;BME280;10809;49.476;11.016;2024-02-21T12:14:03;98506.09;;;11.65;56.02
21300;BME280;10809;49.476;11.016;2024-02-21T12:16:35;98498.81;;;11.68;56.09
21300;BME280;10809;49.476;11.016;2024-02-21T12:19:08;98500.50;;;11.69;55.71
21300;BME280;10809;49.476;11.016;2024-02-21T12:21:39;98501.19;;;11.73;55.79
21300;BME280;10809;49.476;11.016;2024-02-21T12:24:21;98497.50;;;11.75;56.00
21300;BME280;10809;49.476;11.016;2024-02-21T12:26:52;98495.53;;;11.79;55.60
21300;BME280;10809;49.476;11.016;2024-02-21T12:29:24;98496.22;;;11.82;55.72
21300;BME280;10809;49.476;11.016;2024-02-21T12:31:59;98495.19;;;11.85;55.62
21300;BME280;10809;49.476;11.016;2024-02-21T12:34:30;98486.09;;;11.89;55.42
21300;BME280;10809;49.476;11.016;2024-02-21T12:37:03;98480.66;;;11.92;55.38
21300;BME280;10809;49.476;11.016;2024-02-21T12:39:34;98464.53;;;11.95;54.97
21300;BME280;10809;49.476;11.016;2024-02-21T12:42:04;98470.59;;;11.97;54.74
21300;BME280;10809;49.476;11.016;2024-02-21T12:44:35;98458.09;;;11.99;54.91
21300;BME280;10809;49.476;11.016;2024-02-21T12:47:06;98454.41;;;12.01;54.67
21300;BME280;10809;49.476;11.016;2024-02-21T12:49:36;98438.38;;;12.03;54.82
21300;BME280;10809;49.476;11.016;2024-02-21T12:52:06;98440.84;;;12.06;54.56
21300;BME280;10809;49.476;11.016;2024-02-21T12:54:38;98437.38;;;12.05;53.81
21300;BME280;10809;49.476;11.016;2024-02-21T12:57:08;98424.19;;;12.04;53.62
21300;BME280;10809;49.476;11.016;2024-02-21T12:59:38;98421.53;;;12.04;53.70
21300;BME280;10809;49.476;11.016;2024-02-21T13:02:09;98432.16;;;12.04;53.54
21300;BME280;10809;49.476;11.016;2024-02-21T13:04:43;98419.72;;;12.04;53.54
21300;BME280;10809;49.476;11.016;2024-02-21T13:07:13;98417.84;;;12.06;53.67
21300;BME280;10809;49.476;11.016;2024-02-21T13:09:44;98407.13;;;12.08;53.41
21300;BME280;10809;49.476;11.016;2024-02-21T13:12:15;98403.53;;;12.09;53.23
21300;BME280;10809;49.476;11.016;2024-02-21T13:14:45;98398.22;;;12.09;53.14
21300;BME280;10809;49.476;11.016;2024-02-21T13:17:16;98394.63;;;12.10;53.09
21300;BME280;10809;49.476;11.016;2024-02-21T13:19:47;98383.16;;;12.09;52.75
21300;BME280;10809;49.476;11.016;2024-02-21T13:22:17;98381.38;;;12.10;53.00
21300;BME280;10809;49.476;11.016;2024-02-21T13:24:50;98384.00;;;12.10;53.09